KR-0412 weather

Public forecast

Using degrees Celsius for public forecast. Weather courtesy of forecast.io.

Closest aviation weather report (METAR) to Busan Dadae Jugong 2 Apartment Complex Heliports

Closest report is Gimhae International Airport, 7.2 nm (13.4 km) NNW. Retrieved 2020/08/15 10:35 UTC (0 seconds ago):

RKPK 151035Z 15SPECI

Closest aviation forecast (TAF) to Busan Dadae Jugong 2 Apartment Complex Heliports

Closest forecast is Gimhae International Airport, 7.2 nm (13.4 km) NNW. Retrieved 2020/08/15 06:00 UTC (4 hours ago):

TAF RKPK 150500Z 1506/1612 21010KT 9999 SCT030 TN26/1521Z TX34/1606Z BECMG 1508/1509 22006KT